Time;durP1;ratioP1;P1;durP2;ratioP2;P2;SDS_P1;SDS_P2;PMS_P1;PMS_P2;Temp;Humidity;BMP_temperature;BMP_pressure;BME280_temperature;BME280_humidity;BME280_pressure;Samples;Min_cycle;Max_cycle;Signal;HPM_P1;HPM_P2
2021/12/10 00:02:02;;;;;;;;;0.25;0.25;;;;;5.91;79.54;98860.06;4997602;28;45342;-54
2021/12/10 00:04:31;;;;;;;;;2.00;2.00;;;;;5.14;80.35;98722.56;5013997;28;47490;-55
2021/12/10 00:07:01;;;;;;;;;1.00;1.00;;;;;5.87;80.30;98831.59;5015191;28;45439;-58
2021/12/10 00:09:32;;;;;;;;;1.00;1.00;;;;;5.82;80.30;98809.72;4997617;28;45368;-50
2021/12/10 00:12:08;;;;;;;;;2.00;0.20;;;;;5.79;80.47;98789.22;5015535;28;45521;-54
2021/12/10 00:14:35;;;;;;;;;1.00;1.00;;;;;5.76;80.79;98780.66;4993100;28;45749;-54
2021/12/10 00:17:01;;;;;;;;;0.00;0.00;;;;;5.76;80.74;98778.75;5007196;28;45771;-56
2021/12/10 00:19:41;;;;;;;;;0.00;0.00;;;;;5.69;80.20;98767.97;5014607;28;45265;-53
2021/12/10 00:22:10;;;;;;;;;0.00;0.00;;;;;5.74;80.78;98752.81;5015117;28;45390;-49
2021/12/10 00:24:40;;;;;;;;;2.00;1.00;;;;;5.65;80.11;98730.56;4996659;28;45606;-50
2021/12/10 00:27:07;;;;;;;;;0.00;0.00;;;;;5.70;80.86;98726.06;5015029;28;45453;-58
2021/12/10 00:29:34;;;;;;;;;0.20;0.20;;;;;5.54;80.38;98662.22;5014917;28;45364;-57
2021/12/10 00:32:04;;;;;;;;;0.80;0.20;;;;;5.44;81.33;98626.56;5015356;28;45307;-50
2021/12/10 00:34:33;;;;;;;;;0.80;0.80;;;;;5.60;80.54;98643.31;5014720;28;46107;-51
2021/12/10 00:37:02;;;;;;;;;1.80;0.80;;;;;5.64;80.72;98639.03;5014859;28;45399;-57
2021/12/10 00:39:30;;;;;;;;;0.00;0.00;;;;;5.54;80.83;98658.66;5014812;28;45289;-60
2021/12/10 00:41:56;;;;;;;;;2.40;0.00;;;;;5.54;81.37;98667.66;5014937;28;45546;-54
2021/12/10 00:44:22;;;;;;;;;0.75;0.00;;;;;5.59;80.81;98682.47;4980334;28;46442;-56
2021/12/10 00:46:48;;;;;;;;;0.00;0.00;;;;;5.63;80.93;98676.34;5014707;28;45352;-50
2021/12/10 00:49:13;;;;;;;;;0.00;0.00;;;;;5.62;82.24;98673.84;5014714;28;45437;-50
2021/12/10 00:51:39;;;;;;;;;0.00;0.00;;;;;5.41;80.48;98627.84;5015082;28;45498;-53
2021/12/10 00:54:05;;;;;;;;;0.00;0.00;;;;;5.52;80.51;98630.84;5014128;28;46095;-53
2021/12/10 00:56:30;;;;;;;;;0.00;0.00;;;;;5.61;80.54;98655.84;5014445;28;45369;-51
2021/12/10 00:58:56;;;;;;;;;0.00;0.00;;;;;5.53;80.49;98625.19;5014612;28;45343;-53
2021/12/10 01:01:24;;;;;;;;;0.00;0.00;;;;;5.03;81.99;98544.69;5014547;28;45517;-58
2021/12/10 01:03:55;;;;;;;;;0.20;0.00;;;;;5.57;80.96;98601.88;5014322;28;45449;-52
2021/12/10 01:06:22;;;;;;;;;0.00;0.00;;;;;5.53;81.95;98580.81;5014287;28;45494;-52
2021/12/10 01:08:50;;;;;;;;;0.20;0.20;;;;;5.48;81.66;98567.06;4980393;28;45468;-54
2021/12/10 01:11:39;;;;;;;;;0.00;0.00;;;;;5.54;82.21;98558.81;4997232;28;45511;-54
2021/12/10 01:14:17;;;;;;;;;0.00;0.00;;;;;5.53;81.73;98549.00;4995496;28;47664;-50
2021/12/10 01:27:31;;;;;;;;;0.00;0.00;;;;;5.48;81.94;98532.53;5014088;28;45366;-53
2021/12/10 01:30:06;;;;;;;;;0.00;0.00;;;;;5.51;81.40;98523.06;5014043;28;45791;-51
2021/12/10 01:32:34;;;;;;;;;0.00;0.00;;;;;5.51;81.39;98520.34;5016712;28;45324;-54
2021/12/10 01:35:00;;;;;;;;;0.20;0.20;;;;;5.46;81.87;98504.72;4999597;28;45523;-53
2021/12/10 01:37:26;;;;;;;;;0.00;0.00;;;;;5.46;82.01;98496.56;4999418;28;45445;-53
2021/12/10 01:39:51;;;;;;;;;0.75;0.75;;;;;5.53;82.53;98500.00;4999314;28;45339;-56
2021/12/10 01:44:55;;;;;;;;;0.00;0.00;;;;;5.32;81.89;98473.34;5016790;28;46504;-53
2021/12/10 01:47:30;;;;;;;;;1.00;1.00;;;;;5.53;81.23;98504.59;5017143;28;45368;-54
2021/12/10 01:49:55;;;;;;;;;0.00;0.00;;;;;5.52;82.10;98492.06;5017181;28;45393;-56
2021/12/10 01:52:21;;;;;;;;;0.50;0.50;;;;;5.50;81.55;98475.16;5017665;28;45338;-53
2021/12/10 01:54:49;;;;;;;;;0.00;0.00;;;;;5.47;81.80;98471.00;4999045;28;47445;-53
2021/12/10 01:57:15;;;;;;;;;0.80;0.00;;;;;5.49;81.92;98454.47;5017163;28;45478;-52
2021/12/10 01:59:42;;;;;;;;;0.75;0.00;;;;;5.52;81.71;98470.31;5016813;28;45886;-54
2021/12/10 02:02:14;;;;;;;;;0.00;0.00;;;;;5.49;81.19;98458.00;4999636;28;45395;-60
2021/12/10 02:04:40;;;;;;;;;1.00;0.00;;;;;5.53;82.05;98463.78;5016634;28;46143;-49
2021/12/10 02:07:06;;;;;;;;;0.40;0.40;;;;;5.54;82.26;98455.41;4999050;28;45462;-54
2021/12/10 02:09:32;;;;;;;;;0.00;0.00;;;;;5.54;81.20;98447.25;5017106;28;45464;-54
2021/12/10 02:11:57;;;;;;;;;0.00;0.00;;;;;5.13;81.58;98398.09;5016929;28;45479;-54
2021/12/10 02:14:23;;;;;;;;;0.00;0.00;;;;;5.55;82.18;98442.63;5016390;28;45402;-53
2021/12/10 02:16:49;;;;;;;;;0.00;0.00;;;;;5.33;81.67;98405.09;5016959;28;45396;-58
2021/12/10 02:19:15;;;;;;;;;0.00;0.00;;;;;5.55;81.76;98438.00;5016773;28;45376;-54
2021/12/10 02:21:40;;;;;;;;;2.00;0.00;;;;;5.57;81.68;98435.06;5017447;28;45221;-54
2021/12/10 02:24:07;;;;;;;;;1.00;0.00;;;;;5.52;82.05;98430.31;5014947;28;45715;-56
2021/12/10 02:26:41;;;;;;;;;0.00;0.00;;;;;5.52;81.89;98427.59;5016418;28;45443;-55
2021/12/10 02:29:06;;;;;;;;;0.60;0.60;;;;;5.24;81.78;98374.69;5016621;28;45435;-54
2021/12/10 02:31:32;;;;;;;;;0.00;0.00;;;;;5.54;82.37;98411.84;4999206;28;45973;-54
2021/12/10 02:33:57;;;;;;;;;0.00;0.00;;;;;5.51;82.22;98412.31;5016233;28;45520;-56
2021/12/10 02:36:24;;;;;;;;;0.00;0.00;;;;;5.48;81.79;98384.75;5016705;28;45249;-56
2021/12/10 02:38:50;;;;;;;;;1.20;0.60;;;;;5.59;82.61;98402.97;5016473;28;45392;-52
2021/12/10 02:41:17;;;;;;;;;0.00;0.00;;;;;5.62;82.21;98418.00;5016668;28;45575;-53
2021/12/10 02:43:43;;;;;;;;;0.00;0.00;;;;;5.62;82.62;98424.28;5015388;28;46325;-53
2021/12/10 02:46:09;;;;;;;;;0.75;0.00;;;;;5.66;82.33;98414.56;5016534;28;45445;-53
2021/12/10 02:48:34;;;;;;;;;0.00;0.00;;;;;5.67;82.24;98391.72;5016460;28;45371;-55
2021/12/10 02:51:00;;;;;;;;;0.00;0.00;;;;;5.65;83.29;98374.81;5016523;28;45218;-57
2021/12/10 02:53:29;;;;;;;;;0.00;0.00;;;;;5.64;83.84;98378.63;4984060;28;45588;-63
2021/12/10 02:55:58;;;;;;;;;0.00;0.00;;;;;5.69;82.93;98392.34;5014282;28;45700;-50
2021/12/10 02:58:24;;;;;;;;;0.00;0.00;;;;;5.48;82.37;98354.81;4998073;28;45370;-51
2021/12/10 03:00:57;;;;;;;;;0.00;0.00;;;;;5.72;82.32;98372.00;5015065;28;45608;-51
2021/12/10 03:03:22;;;;;;;;;2.00;0.00;;;;;5.80;82.62;98368.88;4998519;28;46687;-58
2021/12/10 03:05:48;;;;;;;;;0.00;0.00;;;;;5.80;82.58;98376.22;5014579;28;45382;-53
2021/12/10 03:08:13;;;;;;;;;0.00;0.00;;;;;5.83;82.44;98376.56;5016015;28;45474;-53
2021/12/10 03:10:40;;;;;;;;;0.00;0.00;;;;;5.31;82.27;98283.97;5015761;28;45547;-51
2021/12/10 03:13:05;;;;;;;;;0.00;0.00;;;;;5.96;81.61;98380.09;5015839;28;45729;-50
2021/12/10 03:15:31;;;;;;;;;0.00;0.00;;;;;5.78;82.41;98351.13;5016026;28;45177;-51
2021/12/10 03:17:57;;;;;;;;;0.00;0.00;;;;;6.00;81.75;98384.00;5016100;28;45292;-52
2021/12/10 03:20:25;;;;;;;;;0.00;0.00;;;;;6.03;81.81;98375.38;4998012;28;45636;-56
2021/12/10 03:22:50;;;;;;;;;0.00;0.00;;;;;6.06;82.44;98391.25;4998392;28;45652;-56
2021/12/10 03:25:16;;;;;;;;;0.00;0.00;;;;;6.08;81.95;98394.56;5015502;28;45420;-59
2021/12/10 03:27:42;;;;;;;;;0.00;0.00;;;;;6.12;82.93;98394.91;4997822;28;45415;-53
2021/12/10 03:30:09;;;;;;;;;0.00;0.00;;;;;6.16;82.39;98395.25;5016637;28;45649;-55
2021/12/10 03:32:35;;;;;;;;;0.60;0.00;;;;;6.16;82.72;98389.81;5017136;28;45442;-49
2021/12/10 03:35:03;;;;;;;;;0.25;0.00;;;;;6.20;82.90;98385.53;5015561;28;45347;-51
2021/12/10 03:37:29;;;;;;;;;0.00;0.00;;;;;6.22;82.83;98395.13;5016003;28;45394;-56
2021/12/10 03:39:55;;;;;;;;;0.00;0.00;;;;;6.26;83.03;98395.47;4997953;28;45359;-56
2021/12/10 03:42:20;;;;;;;;;0.00;0.00;;;;;6.31;83.26;98392.84;5004352;28;48140;-53
2021/12/10 03:44:46;;;;;;;;;0.00;0.00;;;;;6.36;83.84;98392.13;4997281;28;45426;-53
2021/12/10 03:47:12;;;;;;;;;0.00;0.00;;;;;6.42;83.64;98395.78;5014185;28;45314;-56
2021/12/10 03:49:38;;;;;;;;;0.00;0.00;;;;;6.46;83.75;98386.06;4997626;28;45435;-51
2021/12/10 03:52:04;;;;;;;;;2.00;1.00;;;;;6.49;83.71;98386.38;4997380;28;46223;-52
2021/12/10 03:54:30;;;;;;;;;0.00;0.00;;;;;6.56;84.44;98402.59;5013288;28;45433;-52
2021/12/10 03:56:55;;;;;;;;;1.00;1.00;;;;;6.55;84.69;98384.56;5013382;28;45371;-56
2021/12/10 03:59:21;;;;;;;;;0.00;0.00;;;;;6.46;84.50;98373.22;5015713;28;45205;-58
2021/12/10 04:01:49;;;;;;;;;0.60;0.60;;;;;6.68;84.92;98390.81;5014805;28;46296;-54
2021/12/10 04:04:22;;;;;;;;;1.60;0.60;;;;;6.76;85.24;98387.69;4997517;28;45399;-53
2021/12/10 04:06:47;;;;;;;;;0.00;0.00;;;;;6.61;85.18;98369.97;5015097;28;45383;-51
2021/12/10 04:09:13;;;;;;;;;0.25;0.25;;;;;6.89;84.88;98403.75;5015771;28;45528;-52
2021/12/10 04:11:39;;;;;;;;;1.00;1.00;;;;;6.87;84.26;98388.69;4980605;28;47190;-54
2021/12/10 04:14:05;;;;;;;;;1.75;1.75;;;;;6.98;85.05;98400.63;5015228;28;45303;-56
2021/12/10 04:16:31;;;;;;;;;0.80;0.80;;;;;7.03;84.49;98403.44;5015075;28;45434;-58
2021/12/10 04:18:57;;;;;;;;;2.00;1.00;;;;;6.55;84.50;98332.78;5015295;28;45396;-53
2021/12/10 04:21:23;;;;;;;;;2.00;2.00;;;;;7.10;84.38;98411.47;4997274;28;46455;-51
2021/12/10 04:23:49;;;;;;;;;1.75;0.50;;;;;7.13;83.98;98408.22;4996946;28;45435;-55
2021/12/10 04:26:16;;;;;;;;;2.50;1.50;;;;;6.94;84.04;98375.72;5014884;28;45506;-53
2021/12/10 04:28:42;;;;;;;;;1.20;1.20;;;;;7.17;83.85;98409.41;4981363;28;45247;-53
2021/12/10 04:31:08;;;;;;;;;2.00;0.25;;;;;7.23;84.09;98408.41;4996999;28;45660;-58
2021/12/10 04:33:33;;;;;;;;;4.00;1.75;;;;;7.26;83.66;98409.81;4994439;28;45337;-57
2021/12/10 04:35:59;;;;;;;;;5.25;3.00;;;;;7.29;83.92;98406.59;5014939;28;45289;-58
2021/12/10 04:38:25;;;;;;;;;1.20;1.20;;;;;7.32;83.27;98415.09;5015070;28;45335;-55
2021/12/10 04:40:51;;;;;;;;;0.40;0.40;;;;;7.20;83.27;98389.78;4973951;28;45632;-51
2021/12/10 04:43:18;;;;;;;;;1.50;1.00;;;;;7.24;82.97;98381.94;5014157;28;45812;-53
2021/12/10 04:45:44;;;;;;;;;5.80;5.20;;;;;7.53;82.68;98425.53;4997096;28;45411;-49
2021/12/10 04:48:09;;;;;;;;;6.00;1.00;;;;;7.31;81.47;98393.53;4997307;28;45510;-49
2021/12/10 04:50:35;;;;;;;;;1.75;1.75;;;;;7.52;81.96;98423.88;4996882;28;48369;-54
2021/12/10 04:53:01;;;;;;;;;1.40;1.40;;;;;7.55;82.37;98432.41;4997109;28;45337;-58
2021/12/10 04:55:27;;;;;;;;;1.00;1.00;;;;;7.57;82.03;98426.69;5014761;28;45343;-54
2021/12/10 04:57:52;;;;;;;;;5.80;3.40;;;;;7.56;81.63;98417.69;5015097;28;45347;-57
2021/12/10 05:00:27;;;;;;;;;5.75;3.00;;;;;7.52;81.76;98427.44;5015844;28;46158;-51
2021/12/10 05:02:53;;;;;;;;;1.80;1.00;;;;;7.54;81.50;98435.38;5007986;28;45789;-52
2021/12/10 05:05:19;;;;;;;;;2.20;2.20;;;;;7.55;81.17;98428.84;4977941;28;45444;-56
2021/12/10 05:07:44;;;;;;;;;5.75;5.75;;;;;7.53;81.29;98428.28;4996932;28;45575;-53
2021/12/10 05:10:11;;;;;;;;;4.50;4.50;;;;;7.52;80.50;98432.06;5008556;28;47648;-58
2021/12/10 05:12:37;;;;;;;;;5.00;2.80;;;;;7.35;80.70;98411.06;5014677;28;45439;-53
2021/12/10 05:15:06;;;;;;;;;10.25;3.75;;;;;7.55;80.16;98445.22;5017556;28;45434;-50
2021/12/10 05:17:33;;;;;;;;;5.20;3.00;;;;;7.54;80.26;98449.88;5000712;28;45909;-50
2021/12/10 05:20:00;;;;;;;;;4.80;2.20;;;;;7.56;79.59;98447.72;5017354;28;45999;-57
2021/12/10 05:22:26;;;;;;;;;3.20;2.00;;;;;7.57;80.16;98463.00;5017507;28;45348;-56
2021/12/10 05:24:52;;;;;;;;;3.00;3.00;;;;;7.42;79.59;98444.47;5017405;28;45424;-57
2021/12/10 05:27:17;;;;;;;;;6.00;2.00;;;;;7.58;79.50;98464.66;5017697;28;45336;-53
2021/12/10 05:29:43;;;;;;;;;2.00;2.00;;;;;7.56;79.14;98455.06;5017376;28;45302;-51
2021/12/10 05:32:09;;;;;;;;;10.25;2.75;;;;;7.39;78.80;98439.53;5015788;28;45498;-50
2021/12/10 05:34:36;;;;;;;;;4.20;4.20;;;;;7.60;79.20;98484.34;5004405;28;45360;-49
2021/12/10 05:37:02;;;;;;;;;4.60;3.40;;;;;6.95;78.83;98388.31;5014603;28;45459;-52
2021/12/10 05:39:28;;;;;;;;;6.00;2.00;;;;;7.60;78.89;98494.44;5017330;28;45946;-53
2021/12/10 05:41:53;;;;;;;;;2.00;1.00;;;;;7.45;79.01;98464.97;5017042;28;45408;-55
2021/12/10 05:44:19;;;;;;;;;1.25;1.25;;;;;7.58;78.94;98502.88;5017210;28;45364;-57
2021/12/10 05:46:45;;;;;;;;;3.25;2.25;;;;;7.59;78.96;98498.25;5017530;28;45733;-54
2021/12/10 05:49:10;;;;;;;;;2.00;1.00;;;;;7.58;79.24;98493.88;5015667;28;46130;-53
2021/12/10 05:51:36;;;;;;;;;5.00;3.00;;;;;7.59;78.83;98510.00;5017276;28;45550;-51
2021/12/10 05:54:01;;;;;;;;;1.75;1.75;;;;;7.38;78.95;98476.06;4999498;28;45421;-52
2021/12/10 05:56:27;;;;;;;;;1.50;1.00;;;;;7.59;78.97;98514.63;5015875;28;45450;-53
2021/12/10 05:58:52;;;;;;;;;5.25;2.00;;;;;7.60;79.41;98511.63;5016714;28;45442;-49
2021/12/10 06:01:19;;;;;;;;;5.25;2.00;;;;;7.37;78.43;98479.84;4999007;28;45530;-51
2021/12/10 06:03:51;;;;;;;;;3.60;2.00;;;;;7.60;79.47;98532.66;5015390;28;45395;-52
2021/12/10 06:06:18;;;;;;;;;3.20;1.00;;;;;7.60;79.29;98538.94;5017302;28;45305;-51
2021/12/10 06:08:43;;;;;;;;;6.00;1.80;;;;;7.59;79.17;98537.28;5016540;28;46685;-51
2021/12/10 06:11:09;;;;;;;;;1.00;1.00;;;;;7.55;78.31;98548.94;5016944;28;45462;-49
2021/12/10 06:13:34;;;;;;;;;3.50;1.00;;;;;7.60;78.93;98546.31;4999293;28;45463;-54
2021/12/10 06:16:00;;;;;;;;;1.75;1.25;;;;;7.59;79.32;98548.22;5015671;28;45335;-58
2021/12/10 06:18:26;;;;;;;;;3.50;2.25;;;;;7.58;78.85;98549.28;5015294;28;46187;-52
2021/12/10 06:20:52;;;;;;;;;3.50;2.25;;;;;7.58;79.34;98546.56;4998542;28;45372;-58
2021/12/10 06:23:18;;;;;;;;;5.80;3.80;;;;;7.58;79.52;98578.50;4999036;28;45450;-54
2021/12/10 06:25:43;;;;;;;;;3.50;1.75;;;;;7.40;79.30;98561.25;4998860;28;45361;-52
2021/12/10 06:28:09;;;;;;;;;1.00;1.00;;;;;7.18;79.29;98512.00;4998583;28;46663;-54
2021/12/10 06:30:37;;;;;;;;;5.00;1.75;;;;;7.55;79.39;98581.72;5016387;28;45340;-54
2021/12/10 06:33:04;;;;;;;;;2.20;1.40;;;;;7.53;80.03;98581.94;5016690;28;45375;-54
2021/12/10 06:35:30;;;;;;;;;3.80;2.20;;;;;7.50;79.81;98587.06;4998730;28;45361;-58
2021/12/10 06:37:56;;;;;;;;;3.00;2.00;;;;;7.44;80.07;98583.44;5016685;28;46004;-54
2021/12/10 06:40:24;;;;;;;;;2.60;1.00;;;;;7.14;80.02;98549.00;5016206;28;45433;-54
2021/12/10 06:42:50;;;;;;;;;2.60;2.00;;;;;7.43;80.88;98598.97;4998929;28;45485;-46
2021/12/10 06:45:22;;;;;;;;;1.25;1.00;;;;;7.42;80.74;98605.50;4998592;28;45526;-49
2021/12/10 06:47:50;;;;;;;;;3.00;2.00;;;;;7.42;80.90;98608.22;4999429;28;46300;-57
2021/12/10 06:50:19;;;;;;;;;2.20;1.20;;;;;7.36;80.98;98609.19;4998677;28;45429;-57
2021/12/10 06:52:45;;;;;;;;;1.20;1.20;;;;;7.38;81.08;98633.53;4998317;28;45411;-52
2021/12/10 06:55:11;;;;;;;;;2.00;1.80;;;;;7.39;80.77;98630.56;4998778;28;45691;-53
2021/12/10 06:57:37;;;;;;;;;3.75;0.75;;;;;7.39;80.28;98636.03;5016122;28;45939;-49
2021/12/10 07:00:09;;;;;;;;;2.00;1.00;;;;;7.34;79.70;98641.38;5015582;28;45387;-52
2021/12/10 07:02:34;;;;;;;;;7.20;2.40;;;;;7.33;79.64;98645.19;5016229;28;45327;-58
2021/12/10 07:04:59;;;;;;;;;0.75;0.75;;;;;7.32;78.80;98638.06;5016085;28;45472;-51
2021/12/10 07:07:25;;;;;;;;;3.00;3.00;;;;;7.32;78.82;98651.72;4969460;28;45786;-49
2021/12/10 07:09:51;;;;;;;;;0.75;0.75;;;;;7.31;78.60;98661.78;5015884;28;45301;-56
2021/12/10 07:12:18;;;;;;;;;0.00;0.00;;;;;7.30;78.11;98662.03;5014863;28;45795;-56
2021/12/10 07:14:44;;;;;;;;;0.40;0.00;;;;;7.26;78.43;98671.78;5016003;28;45353;-51
2021/12/10 07:17:10;;;;;;;;;0.50;0.00;;;;;7.25;79.08;98692.78;5015763;28;45389;-56
2021/12/10 07:19:36;;;;;;;;;1.75;1.00;;;;;7.26;78.09;98693.63;5016082;28;45639;-58
2021/12/10 07:22:02;;;;;;;;;4.20;1.00;;;;;7.25;78.59;98703.69;5015487;28;45371;-58
2021/12/10 07:24:28;;;;;;;;;1.00;0.00;;;;;7.25;78.71;98711.88;4998352;28;45557;-56
2021/12/10 07:26:55;;;;;;;;;1.50;1.50;;;;;7.27;78.79;98720.63;5015462;28;45409;-51
2021/12/10 07:29:21;;;;;;;;;2.00;1.60;;;;;7.26;79.16;98718.16;4997633;28;45507;-50
2021/12/10 07:31:46;;;;;;;;;4.20;1.00;;;;;7.26;78.97;98729.91;5014323;28;45395;-53
2021/12/10 07:34:12;;;;;;;;;2.00;0.00;;;;;7.22;79.53;98739.66;5015807;28;45672;-52
2021/12/10 07:36:38;;;;;;;;;1.00;1.00;;;;;7.21;79.57;98750.78;5015283;28;45735;-50
2021/12/10 07:39:05;;;;;;;;;1.00;1.00;;;;;7.10;80.21;98747.81;4977816;28;45514;-57
2021/12/10 07:41:31;;;;;;;;;1.00;1.00;;;;;7.12;80.75;98764.81;4995887;28;45254;-58
2021/12/10 07:43:56;;;;;;;;;1.00;1.00;;;;;7.13;80.50;98776.53;4994495;28;45413;-52
2021/12/10 07:46:24;;;;;;;;;0.00;0.00;;;;;6.98;79.82;98772.38;4995527;28;46107;-50
2021/12/10 07:48:50;;;;;;;;;0.40;0.00;;;;;7.04;79.78;98792.41;4994147;28;45349;-52
2021/12/10 07:51:20;;;;;;;;;2.75;0.50;;;;;7.02;78.83;98784.50;4995643;28;45407;-52
2021/12/10 07:53:46;;;;;;;;;0.00;0.00;;;;;6.59;78.76;98720.19;4995943;28;45276;-55
2021/12/10 07:56:12;;;;;;;;;0.25;0.25;;;;;7.04;78.58;98792.41;4977300;28;45428;-57
2021/12/10 07:58:40;;;;;;;;;2.00;1.80;;;;;6.85;78.67;98778.91;4993959;28;45419;-56
2021/12/10 08:01:08;;;;;;;;;0.80;0.80;;;;;7.03;78.20;98796.22;4995121;28;45403;-54
2021/12/10 08:03:34;;;;;;;;;0.20;0.20;;;;;7.01;77.34;98804.66;4995892;28;45431;-53
2021/12/10 08:05:59;;;;;;;;;0.00;0.00;;;;;7.03;77.33;98805.25;4977829;28;45995;-55
2021/12/10 08:08:25;;;;;;;;;1.00;1.00;;;;;6.91;77.04;98788.03;4977568;28;45402;-55
2021/12/10 08:10:51;;;;;;;;;1.25;0.75;;;;;7.11;77.53;98828.63;4986224;28;45340;-56
2021/12/10 08:13:17;;;;;;;;;1.25;1.00;;;;;7.08;76.64;98830.97;4995326;28;45538;-58
2021/12/10 08:15:43;;;;;;;;;1.00;1.00;;;;;6.80;76.52;98807.94;4993453;28;46764;-51
2021/12/10 08:18:09;;;;;;;;;0.00;0.00;;;;;7.01;76.08;98845.56;4993878;28;45449;-49
2021/12/10 08:20:35;;;;;;;;;1.40;1.00;;;;;6.98;75.99;98850.69;4978101;28;45356;-50
2021/12/10 08:23:01;;;;;;;;;0.50;0.50;;;;;6.97;75.18;98868.91;4995353;28;45674;-57
2021/12/10 08:25:27;;;;;;;;;1.75;1.25;;;;;6.96;75.06;98861.81;4995148;28;45324;-55
2021/12/10 08:27:55;;;;;;;;;0.00;0.00;;;;;6.91;74.13;98875.31;4993792;28;45404;-52
2021/12/10 08:30:21;;;;;;;;;4.20;2.00;;;;;6.96;74.70;98883.63;4995006;28;45535;-55
2021/12/10 08:32:47;;;;;;;;;1.00;0.00;;;;;7.02;73.42;98901.78;4995629;28;45418;-53
2021/12/10 08:35:15;;;;;;;;;1.00;0.00;;;;;6.94;72.26;98887.66;4994833;28;45949;-57
2021/12/10 08:37:41;;;;;;;;;1.00;1.00;;;;;7.02;72.79;98904.53;4995251;28;45479;-58
2021/12/10 08:40:08;;;;;;;;;1.00;1.00;;;;;6.83;72.68;98862.84;4988102;28;45487;-55
2021/12/10 08:42:34;;;;;;;;;0.00;0.00;;;;;6.95;71.89;98917.44;5000122;28;45751;-53
2021/12/10 08:44:59;;;;;;;;;4.50;2.00;;;;;6.95;72.17;98927.50;5018469;28;45725;-55
2021/12/10 08:47:25;;;;;;;;;0.00;0.00;;;;;6.93;71.88;98918.72;5017558;28;45336;-53
2021/12/10 08:49:51;;;;;;;;;2.50;1.00;;;;;6.90;72.06;98912.66;5001091;28;45348;-51
2021/12/10 08:52:18;;;;;;;;;2.00;0.00;;;;;6.93;72.05;98938.63;5000800;28;45391;-51
2021/12/10 08:54:43;;;;;;;;;0.80;0.80;;;;;6.93;72.36;98935.91;5018329;28;45966;-52
2021/12/10 08:57:09;;;;;;;;;1.00;0.00;;;;;6.89;72.08;98938.25;5016987;28;45411;-59
2021/12/10 08:59:38;;;;;;;;;0.00;0.00;;;;;6.81;71.86;98933.16;5000689;28;45418;-53
2021/12/10 09:02:05;;;;;;;;;1.00;1.00;;;;;6.76;71.93;98933.00;5001473;28;45431;-62
2021/12/10 09:04:31;;;;;;;;;1.00;1.00;;;;;6.78;72.45;98958.16;5018167;28;46140;-56
2021/12/10 09:07:02;;;;;;;;;6.00;1.00;;;;;6.49;72.00;98914.28;5013057;28;45980;-52
2021/12/10 09:09:30;;;;;;;;;2.60;1.00;;;;;6.75;72.27;98964.06;4988812;28;45824;-56
2021/12/10 09:11:56;;;;;;;;;2.20;0.80;;;;;6.75;72.49;98955.88;4996588;28;45410;-57
2021/12/10 09:14:26;;;;;;;;;0.60;0.60;;;;;6.79;72.19;98965.28;4998428;28;46555;-57
2021/12/10 09:16:52;;;;;;;;;0.00;0.00;;;;;6.83;72.26;98968.38;4980232;28;45358;-53
2021/12/10 09:19:19;;;;;;;;;1.00;0.40;;;;;6.84;72.14;98975.50;4998441;28;45389;-55
2021/12/10 09:21:45;;;;;;;;;0.00;0.00;;;;;6.84;72.82;99000.84;4998365;28;45498;-54
2021/12/10 09:24:12;;;;;;;;;6.00;1.00;;;;;6.85;72.39;98990.78;4980595;28;45675;-54
2021/12/10 09:26:40;;;;;;;;;0.20;0.00;;;;;6.86;71.80;98993.28;4964324;28;45428;-54
2021/12/10 09:29:07;;;;;;;;;2.00;2.00;;;;;6.97;72.18;98997.13;4964697;28;45372;-52
2021/12/10 09:31:33;;;;;;;;;1.00;1.00;;;;;7.02;72.46;98997.28;4998439;28;45311;-55
2021/12/10 09:33:59;;;;;;;;;2.20;1.00;;;;;7.09;72.48;99016.25;4996944;28;47357;-55
2021/12/10 09:36:25;;;;;;;;;2.25;2.25;;;;;7.02;71.67;99002.72;5000273;28;45299;-52
2021/12/10 09:38:50;;;;;;;;;1.75;1.00;;;;;7.02;71.77;99002.72;5007661;28;45358;-55
2021/12/10 09:41:16;;;;;;;;;7.50;5.00;;;;;7.05;71.57;99007.72;5004418;28;45525;-55
2021/12/10 09:43:41;;;;;;;;;2.25;1.25;;;;;7.11;71.91;99025.06;4962253;28;45590;-51
2021/12/10 09:46:07;;;;;;;;;1.25;1.00;;;;;7.23;71.66;99036.00;4997675;28;45374;-54
2021/12/10 09:48:33;;;;;;;;;7.50;5.25;;;;;7.24;70.96;99045.84;4997957;28;45434;-55
2021/12/10 09:51:08;;;;;;;;;7.00;2.25;;;;;7.19;71.30;99034.81;4980465;28;45706;-55
2021/12/10 09:53:34;;;;;;;;;2.80;1.60;;;;;7.29;70.89;99062.38;4995160;28;46053;-53
2021/12/10 09:56:00;;;;;;;;;3.00;2.75;;;;;7.30;70.94;99046.81;4997665;28;45755;-51
2021/12/10 09:58:25;;;;;;;;;1.50;1.25;;;;;7.33;71.17;99049.91;4997647;28;45339;-54
2021/12/10 10:00:54;;;;;;;;;6.00;2.00;;;;;7.14;70.53;99010.94;4997631;28;45735;-51
2021/12/10 10:03:23;;;;;;;;;6.60;2.00;;;;;7.18;69.82;99025.81;4979707;28;48509;-57
2021/12/10 10:05:52;;;;;;;;;6.00;3.00;;;;;7.41;70.08;99059.69;4978470;28;45626;-59
2021/12/10 10:08:25;;;;;;;;;1.00;1.00;;;;;7.36;69.72;99047.81;4964665;28;45536;-55
2021/12/10 10:10:52;;;;;;;;;9.80;4.80;;;;;7.21;69.31;99032.69;4956197;28;45455;-61
2021/12/10 10:13:22;;;;;;;;;2.80;2.80;;;;;7.50;69.63;99062.06;4988033;28;46084;-57
2021/12/10 10:15:48;;;;;;;;;6.00;4.20;;;;;7.42;68.93;99042.22;4991310;28;45428;-56
2021/12/10 10:18:14;;;;;;;;;5.80;1.80;;;;;7.62;68.69;99076.59;4991435;28;45490;-59
2021/12/10 10:20:41;;;;;;;;;5.25;2.25;;;;;7.65;69.41;99092.53;4990696;28;46173;-51
2021/12/10 10:23:07;;;;;;;;;2.80;2.80;;;;;7.66;68.10;99082.41;4992526;28;45824;-56
2021/12/10 10:25:33;;;;;;;;;2.00;2.00;;;;;7.62;68.48;99083.97;4992656;28;45386;-54
2021/12/10 10:27:59;;;;;;;;;3.00;1.60;;;;;7.66;68.39;99094.19;4991220;28;45411;-56
2021/12/10 10:30:30;;;;;;;;;3.00;2.00;;;;;7.62;67.98;99071.13;4991872;28;45788;-56
2021/12/10 10:32:58;;;;;;;;;1.00;0.20;;;;;7.78;68.08;99096.13;4991698;28;45801;-54
2021/12/10 10:35:27;;;;;;;;;6.00;1.00;;;;;7.84;67.42;99109.66;4992167;28;45381;-54
2021/12/10 10:37:53;;;;;;;;;5.00;1.80;;;;;7.86;66.52;99103.97;4991451;28;45575;-52
2021/12/10 10:40:21;;;;;;;;;2.00;2.00;;;;;7.89;66.12;99119.06;4991049;28;45482;-53
2021/12/10 10:42:47;;;;;;;;;1.40;1.40;;;;;7.88;66.67;99110.03;4992665;28;46648;-54
2021/12/10 10:45:17;;;;;;;;;6.80;2.20;;;;;7.88;66.44;99120.13;4991119;28;45802;-58
2021/12/10 10:47:47;;;;;;;;;2.60;0.40;;;;;7.88;65.11;99123.69;4986899;28;46005;-57
2021/12/10 10:50:21;;;;;;;;;4.60;1.60;;;;;7.94;66.01;99124.63;4987800;28;45771;-57
2021/12/10 10:52:51;;;;;;;;;9.40;2.80;;;;;7.72;65.26;99093.25;4967820;28;46923;-56
2021/12/10 10:55:29;;;;;;;;;1.80;1.20;;;;;8.06;65.02;99119.22;4991226;28;45889;-58
2021/12/10 10:57:56;;;;;;;;;1.80;1.00;;;;;8.21;64.48;99133.25;4991020;28;45522;-50
2021/12/10 11:00:44;;;;;;;;;0.60;0.60;;;;;8.31;63.39;99131.84;4973482;28;45770;-56
2021/12/10 11:03:14;;;;;;;;;4.60;2.00;;;;;8.36;63.34;99157.41;5002344;28;45804;-50
2021/12/10 11:05:49;;;;;;;;;2.00;2.00;;;;;8.39;63.30;99153.38;5010722;28;45938;-50
2021/12/10 11:08:28;;;;;;;;;3.20;2.00;;;;;8.35;61.21;99139.34;4974752;28;45983;-55
2021/12/10 11:10:58;;;;;;;;;0.40;0.40;;;;;8.45;62.07;99151.56;5002554;28;45458;-55
2021/12/10 11:13:25;;;;;;;;;2.20;1.00;;;;;8.33;61.57;99135.16;5011360;28;46164;-53
2021/12/10 11:16:08;;;;;;;;;2.00;2.00;;;;;8.60;62.13;99175.75;5009726;28;45479;-49
2021/12/10 11:18:50;;;;;;;;;1.00;1.00;;;;;8.70;61.63;99170.50;4987046;28;45833;-52
2021/12/10 11:21:33;;;;;;;;;1.80;1.00;;;;;8.73;60.68;99171.94;5002178;28;45898;-55
2021/12/10 11:24:23;;;;;;;;;1.00;1.00;;;;;8.62;60.68;99179.06;4991779;28;48274;-50
2021/12/10 11:26:51;;;;;;;;;1.20;1.20;;;;;8.72;60.58;99184.78;5009168;28;45707;-53
2021/12/10 11:29:42;;;;;;;;;1.00;1.00;;;;;8.79;61.21;99182.78;5011154;28;45426;-57
2021/12/10 11:32:38;;;;;;;;;3.00;1.80;;;;;8.82;60.35;99176.81;4976597;28;45658;-54
2021/12/10 11:35:18;;;;;;;;;1.00;1.00;;;;;8.88;59.66;99187.88;5008314;28;45981;-54
2021/12/10 11:38:23;;;;;;;;;1.00;1.00;;;;;8.87;60.26;99202.63;5011066;28;45402;-54
2021/12/10 11:41:00;;;;;;;;;1.80;1.00;;;;;8.80;59.42;99198.09;4978931;28;45481;-53
2021/12/10 11:49:01;;;;;;;;;6.20;3.00;;;;;8.95;59.50;99207.72;4993659;28;45508;-53
2021/12/10 11:51:35;;;;;;;;;1.00;1.00;;;;;8.90;58.49;99208.44;4982381;28;45424;-64
2021/12/10 11:54:07;;;;;;;;;1.80;1.80;;;;;8.84;58.89;99205.81;4992540;28;45718;-58
2021/12/10 11:56:40;;;;;;;;;0.80;0.80;;;;;8.73;58.66;99211.06;4991715;28;46843;-56
2021/12/10 11:59:13;;;;;;;;;1.00;1.00;;;;;8.77;59.06;99228.69;5009171;28;45670;-52
2021/12/10 12:02:07;;;;;;;;;3.80;3.00;;;;;8.80;59.75;99236.41;4987023;28;45987;-60
2021/12/10 12:05:09;;;;;;;;;2.00;2.00;;;;;8.83;58.59;99235.09;4992462;28;45489;-54